Nearby METAR Reports

 

KDVT - Phoenix/Deer Vly, Arizona, USA
Distance from station: SSE 14mi, 22km
Updated: 01/19/2020 3:53am
Clear
Clear
 Wind from varies
Wind: varies 3 mph , 6 km/h
Temperature: 52°F , 11°C
Dew Point: 25°F , -4°C
Humidity: 35%
Barometer: 30.16 inHg , 1021.3 hPa
Clouds: Clear
Visibility: 10 miles , 16 km
2020/01/19 10:53 KDVT 191053Z AUTO VRB03KT 10SM CLR 11/M04 A3016 RMK AO2 SLP203 T01061039
KSDL - Scottsdale, Arizona, USA
Distance from station: SE 22mi, 35km
Updated: 01/19/2020 2:53am
Clear
Clear
 Wind from calm
Wind: Calm
Temperature: 46°F , 8°C
Dew Point: 32°F , 0°C
Humidity: 57%
Barometer: 30.16 inHg , 1021.3 hPa
Clouds: Clear
Visibility: 10 miles , 16 km
2020/01/19 09:53 KSDL 190953Z AUTO 00000KT 10SM CLR 08/00 A3016 RMK AO2 SLP203 T00830000
 
KGEU - Glendale, Arizona, USA
Distance from station: SSW 25mi, 41km
Updated: 01/18/2020 5:47pm
NOT Current
Clear
Clear
 Wind from WSW
Wind: WSW 3 mph , 6 km/h
Temperature: 66°F , 19°C
Dew Point: 32°F , 0°C
Humidity: 28%
Barometer: 30.15 inHg , 1021 hPa
Clouds: Clear
Visibility: 10 miles , 16 km
2020/01/19 00:47 KGEU 190047Z 25003KT 10SM SKC 19/00 A3015 RMK LAST
KLUF - Luke Afb/Glendal, Arizona, USA
Distance from station: SSW 28mi, 45km
Updated: 01/19/2020 2:58am
Clear
Clear
 Wind from N
Wind: N 8 mph , 13 km/h
Temperature: 46°F , 8°C
Wind Chill: 42°F , 6°C
Dew Point: 30°F , -1°C
Humidity: 53%
Barometer: 30.15 inHg , 1021 hPa
Clouds: Clear
Visibility: 10 miles , 16 km
2020/01/19 09:58 KLUF 190958Z AUTO 35007KT 10SM CLR 08/M01 A3015 RMK AO2 SLP207 T00771010 $
 
KPHX - Phoenix/Sky Hrbr, Arizona, USA
Distance from station: SSE 31mi, 51km
Updated: 01/19/2020 3:51am
Clear
Clear
 Wind from calm
Wind: Calm
Temperature: 50°F , 10°C
Dew Point: 32°F , 0°C
Humidity: 50%
Barometer: 30.14 inHg , 1020.7 hPa
Clouds: Clear
Visibility: 10 miles , 16 km
2020/01/19 10:51 KPHX 191051Z 00000KT 10SM CLR 10/00 A3014 RMK AO2 SLP200 T01000000
KGYR - Goodyear Municip, Arizona, USA
Distance from station: SSW 34mi, 55km
Updated: 01/18/2020 8:47pm
NOT Current
Few Clouds
Few Clouds
 Wind from N
Wind: N 7 mph , 11 km/h
Temperature: 55°F , 13°C
Dew Point: 36°F , 2°C
Humidity: 47%
Barometer: 30.16 inHg , 1021.3 hPa
Clouds: Few Clouds
Visibility: 10 miles , 16 km
Cloud details: Few Clouds 20000 ft
2020/01/19 03:47 KGYR 190347Z 35006KT 10SM FEW200 13/02 A3016 RMK LAST
 
KFFZ - Mesa/Falcon Fld, Arizona, USA
Distance from station: SE 37mi, 60km
Updated: 01/19/2020 2:54am
Clear
Clear
 Wind from N
Wind: N 6 mph , 9 km/h
Temperature: 54°F , 12°C
Dew Point: 27°F , -3°C
Humidity: 35%
Barometer: 30.15 inHg , 1021 hPa
Clouds: Clear
Visibility: 10 miles , 16 km
2020/01/19 09:54 KFFZ 190954Z AUTO 36005KT 10SM CLR 12/M03 A3015 RMK AO2 SLP197 T01171028
KBXK - Buckeye, Arizona, USA
Distance from station: SW 45mi, 72km
Updated: 01/19/2020 3:35am

 
Barometer: 30.17 inHg , 1021.7 hPa
2020/01/19 10:35 KBXK 191035Z AUTO A3017 RMK A01
 
KIWA - Chandler/Mesa, Arizona, USA
Distance from station: SE 49mi, 78km
Updated: 01/19/2020 3:35am
Clear
Clear
 Wind from ESE
Wind: ESE 5 mph , 7 km/h
Temperature: 41°F , 5°C
Wind Chill: 38°F , 3°C
Dew Point: 36°F , 2°C
Humidity: 81%
Barometer: 30.17 inHg , 1021.7 hPa
Clouds: Clear
Visibility: 10 miles , 16 km
2020/01/19 10:35 KIWA 191035Z AUTO 12004KT 10SM CLR 05/02 A3017 RMK AO2 T00460016
KPAN - Payson, Arizona, USA
Distance from station: ENE 53mi, 85km
Updated: 01/19/2020 3:55am
Clear
Clear
 Wind from NE
Wind: NE 12 mph , 19 km/h
Temperature: 41°F , 5°C
Wind Chill: 34°F , 1°C
Dew Point: 10°F , -12°C
Humidity: 28%
Barometer: 30.31 inHg , 1026.4 hPa
Clouds: Clear
Visibility: 10 miles , 16 km
2020/01/19 10:55 KPAN 191055Z AUTO 04010KT 10SM CLR 05/M12 A3031 RMK AO2
 
KPRC - Prescott, Arizona, USA
Distance from station: NNW 56mi, 90km
Updated: 01/19/2020 2:53am
Clear
Clear
 Wind from SSW
Wind: SSW 6 mph , 9 km/h
Temperature: 28°F , -2°C
Wind Chill: 21°F , -6°C
Dew Point: 19°F , -7°C
Humidity: 69%
Barometer: 30.31 inHg , 1026.4 hPa
Clouds: Clear
Visibility: 10 miles , 16 km
2020/01/19 09:53 KPRC 190953Z AUTO 20005KT 10SM CLR M02/M07 A3031 RMK AO2 SLP244 T10171072
KCGZ - Casa Granda, Arizona, USA
Distance from station: SSE 67mi, 109km
Updated: 01/19/2020 2:56am
Clear
Clear
 Wind from ENE
Wind: ENE 3 mph , 6 km/h
Temperature: 43°F , 6°C
Dew Point: 34°F , 1°C
Humidity: 71%
Barometer: 30.16 inHg , 1021.3 hPa
Clouds: Clear
Visibility: 10 miles , 16 km
2020/01/19 09:56 KCGZ 190956Z AUTO 07003KT 10SM CLR 06/01 A3016 RMK AO2 SLP214 T00560006
 
KSEZ - Sedona, Arizona, USA
Distance from station: NNE 70mi, 113km
Updated: 01/19/2020 3:35am
Clear
Clear
 Wind from NE
Wind: NE 17 mph , 28 km/h, Gust: 26 mph , 43 km/h
Temperature: 43°F , 6°C
Wind Chill: 35°F , 2°C
Dew Point: 14°F , -10°C
Humidity: 31%
Barometer: 30.32 inHg , 1026.8 hPa
Clouds: Clear
Visibility: 10 miles , 16 km
2020/01/19 10:35 KSEZ 191035Z AUTO 05015G23KT 10SM CLR 06/M10 A3032 RMK AO2
KGXF - Gila Bend (aaf), Arizona, USA
Distance from station: SSW 77mi, 124km
Updated: 01/19/2020 2:58am
Clear
Clear
 Wind from ESE
Wind: ESE 6 mph , 9 km/h
Temperature: 41°F , 5°C
Wind Chill: 37°F , 3°C
Dew Point: 34°F , 1°C
Humidity: 76%
Barometer: 30.15 inHg , 1021 hPa
Clouds: Clear
Visibility: 10 miles , 16 km
2020/01/19 09:58 KGXF 190958Z AUTO 11005KT 10SM CLR 05/01 A3015 RMK AO2 SLP207 T00450008 $
 
KP08 - Coolidge Muni, Arizona, USA
Distance from station: SSE 77mi, 124km
Updated: 01/19/2020 3:35am

 
2020/01/19 10:35 KP08 191035Z AUTO RMK AO2 PNO PWINO TSNO
KFLG - Flagstaff, Arizona, USA
Distance from station: NNE 91mi, 146km
Updated: 01/19/2020 2:57am
Clear
Clear
 Wind from E
Wind: E 7 mph , 11 km/h
Temperature: 27°F , -3°C
Wind Chill: 19°F , -7°C
Dew Point: 10°F , -12°C
Humidity: 50%
Barometer: 30.37 inHg , 1028.4 hPa
Clouds: Clear
Visibility: 10 miles , 16 km
2020/01/19 09:57 KFLG 190957Z AUTO 08006KT 10SM CLR M03/M12 A3037 RMK AO2 SLP274 T10331117
 
KCMR - Williams Clark, Arizona, USA
Distance from station: N 98mi, 158km
Updated: 01/19/2020 3:35am
Clear
Clear
 Wind from SSE
Wind: SSE 8 mph , 13 km/h
Temperature: 30°F , -1°C
Wind Chill: 22°F , -6°C
Dew Point: 12°F , -11°C
Humidity: 47%
Barometer: 30.35 inHg , 1027.8 hPa
Clouds: Clear
Visibility: 10 miles , 16 km
2020/01/19 10:35 KCMR 191035Z AUTO 15007KT 10SM CLR M01/M11 A3035 RMK AO2